Time;durP1;ratioP1;P1;durP2;ratioP2;P2;SDS_P1;SDS_P2;PMS_P1;PMS_P2;Temp;Humidity;BMP_temperature;BMP_pressure;BME280_temperature;BME280_humidity;BME280_pressure;Samples;Min_cycle;Max_cycle;Signal;HPM_P1;HPM_P2
2021/01/28 00:00:25;;;;;;;18.10;12.63;;;;;;;1.60;91.04;99993.25;4931775;28;20047;-56
2021/01/28 00:02:52;;;;;;;16.10;11.95;;;;;;;1.68;91.58;99997.03;4934549;28;20057;-54
2021/01/28 00:05:20;;;;;;;18.23;13.60;;;;;;;1.58;92.21;100005.81;4933332;28;20094;-54
2021/01/28 00:07:47;;;;;;;16.52;12.35;;;;;;;1.58;92.42;99998.25;4933773;28;20559;-57
2021/01/28 00:10:16;;;;;;;20.17;13.38;;;;;;;1.68;92.15;100000.44;4933092;28;20051;-54
2021/01/28 00:12:43;;;;;;;18.67;13.27;;;;;;;1.61;92.60;99995.84;4932820;28;20102;-54
2021/01/28 00:15:10;;;;;;;18.25;12.07;;;;;;;1.55;92.53;99985.47;4934122;28;20062;-55
2021/01/28 00:17:37;;;;;;;17.95;12.82;;;;;;;1.63;92.88;99990.91;4932193;28;20181;-57
2021/01/28 00:20:19;;;;;;;18.63;13.02;;;;;;;1.61;92.95;99990.81;4935151;28;20051;-53
2021/01/28 00:22:47;;;;;;;17.52;12.95;;;;;;;1.49;93.68;99993.59;4933636;28;20043;-56
2021/01/28 00:25:17;;;;;;;19.40;13.88;;;;;;;1.67;93.17;99986.09;4933269;28;20062;-57
2021/01/28 00:27:44;;;;;;;18.42;13.60;;;;;;;1.65;92.90;99977.56;4932709;28;20531;-56
2021/01/28 00:30:17;;;;;;;21.23;14.05;;;;;;;1.62;92.76;99979.94;4933996;28;20096;-52
2021/01/28 00:32:43;;;;;;;21.73;14.07;;;;;;;1.56;93.27;99972.03;4931460;28;20051;-54
2021/01/28 00:35:15;;;;;;;19.98;13.57;;;;;;;1.59;93.11;99978.91;4933762;28;20138;-56
2021/01/28 00:37:42;;;;;;;20.83;14.68;;;;;;;1.61;93.73;99973.13;4932218;28;20051;-55
2021/01/28 00:40:10;;;;;;;20.35;15.15;;;;;;;1.70;93.59;99966.03;4933834;28;20423;-52
2021/01/28 00:42:36;;;;;;;22.50;15.23;;;;;;;1.60;93.86;99952.88;4931646;28;20059;-56
2021/01/28 00:45:04;;;;;;;22.33;14.55;;;;;;;1.69;93.88;99954.19;4932196;28;20069;-53
2021/01/28 00:47:31;;;;;;;19.92;14.82;;;;;;;1.65;94.01;99947.28;4931487;28;20504;-55
2021/01/28 00:49:57;;;;;;;23.13;15.43;;;;;;;1.65;94.61;99939.69;4934656;28;20063;-53
2021/01/28 00:52:24;;;;;;;23.67;15.90;;;;;;;1.57;95.57;99940.13;4932133;28;20432;-56
2021/01/28 00:54:50;;;;;;;21.05;15.30;;;;;;;1.57;95.87;99943.50;4933678;28;20091;-55
2021/01/28 00:57:17;;;;;;;26.13;17.25;;;;;;;1.62;95.89;99932.00;4932866;28;20076;-55
2021/01/28 00:59:43;;;;;;;25.88;16.75;;;;;;;1.57;96.83;99930.03;4932778;28;20123;-54
2021/01/28 01:02:10;;;;;;;25.80;17.25;;;;;;;1.52;96.82;99924.75;4933717;28;20055;-55
2021/01/28 01:04:37;;;;;;;25.05;16.92;;;;;;;1.61;97.16;99916.78;4931983;28;20075;-57
2021/01/28 01:07:03;;;;;;;24.00;16.20;;;;;;;1.63;96.70;99912.69;4934532;28;20871;-53
2021/01/28 01:09:30;;;;;;;25.23;16.77;;;;;;;1.65;96.38;99911.09;4931846;28;20126;-54
2021/01/28 01:11:57;;;;;;;25.35;17.27;;;;;;;1.69;96.60;99911.31;4936479;28;20411;-53
2021/01/28 01:14:23;;;;;;;25.42;16.73;;;;;;;1.71;96.78;99914.78;4935445;28;20096;-56
2021/01/28 01:16:50;;;;;;;26.45;17.52;;;;;;;1.69;97.23;99918.88;4937424;28;20044;-53
2021/01/28 01:19:16;;;;;;;25.63;17.10;;;;;;;1.68;97.04;99911.25;4936436;28;20054;-56
2021/01/28 01:21:43;;;;;;;25.02;16.80;;;;;;;1.50;97.11;99916.25;4936354;28;20047;-52
2021/01/28 01:24:10;;;;;;;25.48;16.73;;;;;;;1.70;97.42;99907.13;4937300;28;20073;-53
2021/01/28 01:26:36;;;;;;;24.05;15.98;;;;;;;1.53;97.87;99907.19;4934952;28;20499;-55
2021/01/28 01:29:03;;;;;;;25.52;17.23;;;;;;;1.63;98.65;99900.06;4938077;28;20518;-51
2021/01/28 01:31:31;;;;;;;27.08;18.48;;;;;;;1.62;98.38;99905.88;4934784;28;20151;-55
2021/01/28 01:33:57;;;;;;;25.98;17.77;;;;;;;1.61;98.35;99899.09;4937651;28;20058;-54
2021/01/28 01:36:24;;;;;;;25.83;18.38;;;;;;;1.65;98.65;99895.94;4949642;28;20040;-55
2021/01/28 01:38:50;;;;;;;28.73;18.35;;;;;;;1.73;98.11;99880.38;4936707;28;20055;-56
2021/01/28 01:41:18;;;;;;;28.90;18.08;;;;;;;1.73;98.63;99885.44;4934857;28;20210;-52
2021/01/28 01:43:44;;;;;;;28.23;18.60;;;;;;;1.68;98.46;99875.91;4935794;28;20047;-56
2021/01/28 01:46:14;;;;;;;28.20;18.40;;;;;;;1.68;99.17;99871.72;4936402;28;20779;-55
2021/01/28 01:48:50;;;;;;;30.30;19.42;;;;;;;1.67;99.24;99872.53;4935438;28;20061;-56
2021/01/28 01:51:18;;;;;;;31.38;19.80;;;;;;;1.69;99.42;99870.06;4936245;28;20570;-55
2021/01/28 01:54:05;;;;;;;31.50;19.27;;;;;;;1.72;99.87;99862.66;4935871;28;20129;-56
2021/01/28 01:56:39;;;;;;;32.47;20.30;;;;;;;1.68;100.00;99850.69;4934150;28;20067;-56
2021/01/28 01:59:22;;;;;;;32.42;20.42;;;;;;;1.65;100.00;99843.81;4935597;28;20066;-56
2021/01/28 02:01:58;;;;;;;37.80;20.17;;;;;;;1.69;100.00;99837.28;4936572;28;20392;-55
2021/01/28 02:04:24;;;;;;;38.92;22.08;;;;;;;1.64;100.00;99836.19;4937692;28;20044;-56
2021/01/28 02:07:01;;;;;;;38.63;21.20;;;;;;;1.61;100.00;99838.56;4934476;28;20099;-56
2021/01/28 02:09:28;;;;;;;37.28;21.48;;;;;;;1.62;100.00;99840.28;4932839;28;20044;-53
2021/01/28 02:11:54;;;;;;;37.60;21.25;;;;;;;1.67;100.00;99838.88;4935765;28;20059;-55
2021/01/28 02:14:21;;;;;;;38.28;21.85;;;;;;;1.65;100.00;99846.34;4933016;28;20208;-53
2021/01/28 02:16:48;;;;;;;39.88;23.10;;;;;;;1.62;100.00;99850.38;4934431;28;20694;-54
2021/01/28 02:19:41;;;;;;;40.97;23.52;;;;;;;1.83;100.00;99851.41;4941013;28;20051;-55
2021/01/28 02:22:08;;;;;;;39.65;22.92;;;;;;;1.73;100.00;99849.25;4932972;28;20059;-56
2021/01/28 02:24:55;;;;;;;45.03;22.80;;;;;;;1.82;100.00;99841.25;4932011;28;20106;-53
2021/01/28 02:27:21;;;;;;;38.13;21.27;;;;;;;1.73;100.00;99840.00;4936477;28;20051;-53
2021/01/28 02:29:50;;;;;;;43.50;24.33;;;;;;;1.81;100.00;99837.84;4935082;28;20428;-55
2021/01/28 02:32:16;;;;;;;42.13;22.60;;;;;;;1.82;100.00;99829.47;4932575;28;20044;-53
2021/01/28 02:34:44;;;;;;;45.45;24.13;;;;;;;1.83;100.00;99820.25;4933278;28;20460;-54
2021/01/28 02:37:20;;;;;;;42.50;23.45;;;;;;;1.84;100.00;99817.78;4933276;28;20051;-56
2021/01/28 02:39:47;;;;;;;44.78;25.48;;;;;;;1.84;100.00;99816.91;4934001;28;20059;-56
2021/01/28 02:42:19;;;;;;;43.47;24.13;;;;;;;1.91;100.00;99821.47;4932761;28;20122;-56
2021/01/28 02:44:46;;;;;;;43.50;25.08;;;;;;;1.86;100.00;99811.16;4933496;28;20043;-55
2021/01/28 02:47:13;;;;;;;39.08;21.95;;;;;;;1.95;100.00;99820.81;4932878;28;20051;-55
2021/01/28 02:49:39;;;;;;;43.40;23.83;;;;;;;1.98;100.00;99815.88;4932675;28;20059;-51
2021/01/28 02:52:06;;;;;;;38.08;22.00;;;;;;;1.92;100.00;99819.00;4934160;28;20055;-56
2021/01/28 02:54:44;;;;;;;40.92;23.67;;;;;;;1.92;100.00;99810.56;4931965;28;20047;-52
2021/01/28 02:57:11;;;;;;;40.60;22.63;;;;;;;2.08;100.00;99804.53;4932587;28;20102;-54
2021/01/28 02:59:38;;;;;;;38.95;21.73;;;;;;;2.01;100.00;99818.56;4932060;28;20059;-56
2021/01/28 03:02:11;;;;;;;46.10;24.35;;;;;;;2.00;100.00;99801.69;4934110;28;20043;-56
2021/01/28 03:04:38;;;;;;;37.80;23.20;;;;;;;2.00;100.00;99806.75;4932064;28;20092;-57
2021/01/28 03:07:06;;;;;;;40.50;22.55;;;;;;;2.00;100.00;99800.03;4934013;28;20122;-54
2021/01/28 03:09:33;;;;;;;42.60;23.55;;;;;;;2.03;100.00;99809.38;4931850;28;20055;-50
2021/01/28 03:12:00;;;;;;;37.03;21.92;;;;;;;2.02;100.00;99798.44;4934283;28;20051;-56
2021/01/28 03:14:27;;;;;;;37.90;20.60;;;;;;;2.01;100.00;99796.72;4931608;28;20102;-56
2021/01/28 03:16:54;;;;;;;37.63;22.05;;;;;;;1.98;100.00;99795.69;4933994;28;20495;-56
2021/01/28 03:19:21;;;;;;;43.55;23.13;;;;;;;2.11;100.00;99800.50;4936428;28;20389;-56
2021/01/28 03:21:48;;;;;;;43.58;23.42;;;;;;;2.08;100.00;99795.34;4933335;28;20047;-54
2021/01/28 03:24:15;;;;;;;38.65;22.42;;;;;;;2.14;100.00;99792.22;4932263;28;20059;-56
2021/01/28 03:26:42;;;;;;;40.58;22.02;;;;;;;2.15;100.00;99792.28;4932336;28;20737;-56
2021/01/28 03:29:11;;;;;;;40.70;22.30;;;;;;;2.13;100.00;99791.34;4932988;28;20130;-54
2021/01/28 03:31:40;;;;;;;36.20;22.45;;;;;;;2.14;100.00;99792.22;4932029;28;20039;-56
2021/01/28 03:34:06;;;;;;;39.53;22.30;;;;;;;2.17;100.00;99787.28;4932814;28;20039;-54
2021/01/28 03:36:33;;;;;;;38.20;22.48;;;;;;;2.17;100.00;99788.19;4930478;28;20103;-54
2021/01/28 03:39:00;;;;;;;42.75;23.45;;;;;;;2.15;100.00;99784.69;4933774;28;20043;-56
2021/01/28 03:41:28;;;;;;;41.47;22.40;;;;;;;2.09;100.00;99786.09;4931610;28;20062;-56
2021/01/28 03:43:54;;;;;;;40.33;22.13;;;;;;;2.18;100.00;99781.47;4933981;28;20368;-56
2021/01/28 03:46:21;;;;;;;39.92;23.10;;;;;;;2.17;100.00;99780.59;4931158;28;20563;-54
2021/01/28 03:48:47;;;;;;;40.45;22.17;;;;;;;2.17;100.00;99772.13;4933237;28;20051;-54
2021/01/28 03:51:14;;;;;;;42.55;24.20;;;;;;;2.25;100.00;99755.66;4932041;28;20055;-55
2021/01/28 03:53:40;;;;;;;38.88;22.85;;;;;;;2.22;100.00;99746.31;4931483;28;20052;-56
2021/01/28 03:56:06;;;;;;;39.95;22.65;;;;;;;2.22;100.00;99747.97;4932222;28;20046;-54
2021/01/28 03:58:33;;;;;;;38.92;22.40;;;;;;;2.25;100.00;99737.97;4931329;28;20519;-54
2021/01/28 04:00:59;;;;;;;38.78;22.55;;;;;;;2.15;100.00;99744.28;4933445;28;20055;-54
2021/01/28 04:03:26;;;;;;;40.85;22.92;;;;;;;2.24;100.00;99752.28;4930979;28;20066;-56
2021/01/28 04:05:52;;;;;;;44.10;22.95;;;;;;;2.29;100.00;99742.38;4932504;28;20055;-55
2021/01/28 04:08:19;;;;;;;40.20;22.50;;;;;;;2.24;100.00;99744.69;4931250;28;20515;-53
2021/01/28 04:10:48;;;;;;;39.80;22.55;;;;;;;2.30;100.00;99734.00;4932143;28;20122;-54
2021/01/28 04:13:14;;;;;;;41.70;22.20;;;;;;;2.28;100.00;99733.06;4930484;28;20055;-57
2021/01/28 04:15:41;;;;;;;40.63;22.83;;;;;;;2.35;100.00;99735.03;4931153;28;20059;-56
2021/01/28 04:18:08;;;;;;;38.58;22.73;;;;;;;2.29;100.00;99729.75;4932293;28;20138;-55
2021/01/28 04:20:37;;;;;;;41.63;22.17;;;;;;;2.36;100.00;99731.75;4930756;28;20547;-57
2021/01/28 04:23:04;;;;;;;40.00;21.80;;;;;;;2.34;100.00;99723.22;4931477;28;20051;-55
2021/01/28 04:25:31;;;;;;;39.83;22.92;;;;;;;2.36;100.00;99718.22;4930582;28;20056;-56
2021/01/28 04:27:57;;;;;;;39.10;21.05;;;;;;;2.25;100.00;99718.63;4933458;28;20054;-54
2021/01/28 04:30:29;;;;;;;41.13;23.20;;;;;;;2.38;100.00;99712.44;4935237;28;20102;-54
2021/01/28 04:32:57;;;;;;;40.38;21.45;;;;;;;2.40;100.00;99717.56;4935081;28;20055;-56
2021/01/28 04:35:24;;;;;;;44.58;22.98;;;;;;;2.34;100.00;99712.25;4930246;28;20047;-55
2021/01/28 04:37:52;;;;;;;37.85;21.85;;;;;;;2.45;100.00;99713.56;4931955;28;20059;-49
2021/01/28 04:40:30;;;;;;;39.33;21.98;;;;;;;2.49;100.00;99711.22;4930764;28;20107;-48
2021/01/28 04:43:00;;;;;;;41.30;22.00;;;;;;;2.45;100.00;99714.44;4933258;28;20050;-55
2021/01/28 04:45:29;;;;;;;38.55;21.80;;;;;;;2.50;100.00;99707.06;4930949;28;20051;-55
2021/01/28 04:48:00;;;;;;;41.95;23.40;;;;;;;2.40;100.00;99705.78;4939259;28;20130;-53
2021/01/28 04:50:34;;;;;;;40.20;22.05;;;;;;;2.45;100.00;99705.97;4937869;28;20048;-56
2021/01/28 04:53:12;;;;;;;40.40;21.30;;;;;;;2.54;100.00;99701.31;4940702;28;20455;-54
2021/01/28 04:55:42;;;;;;;38.33;21.05;;;;;;;2.62;100.00;99710.09;4937616;28;20091;-51
2021/01/28 04:58:10;;;;;;;39.67;21.38;;;;;;;2.73;100.00;99701.28;4937762;28;20426;-53
2021/01/28 05:00:43;;;;;;;35.65;19.48;;;;;;;2.75;100.00;99702.22;4940794;28;20047;-55
2021/01/28 05:03:17;;;;;;;38.13;20.52;;;;;;;2.77;100.00;99697.19;4939142;28;20043;-52
2021/01/28 05:05:44;;;;;;;36.42;18.73;;;;;;;2.69;100.00;99696.06;4938724;28;20086;-54
2021/01/28 05:08:11;;;;;;;34.55;18.70;;;;;;;2.68;100.00;99691.78;4938862;28;21095;-51
2021/01/28 05:10:44;;;;;;;30.38;17.40;;;;;;;2.74;100.00;99700.50;4937700;28;20054;-50
2021/01/28 05:13:12;;;;;;;36.33;20.02;;;;;;;2.78;100.00;99689.69;4939298;28;20043;-54
2021/01/28 05:15:43;;;;;;;35.65;19.83;;;;;;;2.80;100.00;99693.16;4937832;28;20166;-52
2021/01/28 05:18:10;;;;;;;36.92;18.98;;;;;;;2.75;100.00;99691.25;4938964;28;20051;-53
2021/01/28 05:20:38;;;;;;;35.28;18.38;;;;;;;2.72;100.00;99689.44;4937426;28;20119;-52
2021/01/28 05:23:11;;;;;;;34.42;18.95;;;;;;;2.80;100.00;99684.69;4938116;28;20783;-51
2021/01/28 05:25:40;;;;;;;39.25;21.83;;;;;;;2.78;100.00;99689.69;4951396;28;20058;-46
2021/01/28 05:28:36;;;;;;;38.83;20.65;;;;;;;2.80;100.00;99680.50;4938712;28;20051;-50
2021/01/28 05:31:02;;;;;;;32.92;19.25;;;;;;;2.93;100.00;99675.94;4937719;28;20039;-53
2021/01/28 05:33:40;;;;;;;33.88;19.45;;;;;;;2.94;100.00;99665.03;4941518;28;20558;-52
2021/01/28 05:36:20;;;;;;;40.75;20.95;;;;;;;2.94;100.00;99670.94;4939314;28;20055;-55
2021/01/28 05:38:53;;;;;;;32.53;18.30;;;;;;;2.94;100.00;99663.34;4938962;28;20107;-53
2021/01/28 05:41:30;;;;;;;35.15;18.73;;;;;;;3.04;100.00;99664.56;4938690;28;20110;-52
2021/01/28 05:44:21;;;;;;;32.75;18.52;;;;;;;3.18;100.00;99662.59;4939786;28;20400;-53
2021/01/28 05:47:12;;;;;;;33.38;19.08;;;;;;;3.11;100.00;99664.03;4960909;28;20051;-51
2021/01/28 05:49:41;;;;;;;31.58;18.35;;;;;;;3.08;100.00;99673.16;4937364;28;20051;-50
2021/01/28 05:52:25;;;;;;;32.70;18.52;;;;;;;3.14;100.00;99669.19;4943537;28;20055;-51
2021/01/28 05:55:21;;;;;;;29.70;18.77;;;;;;;3.24;100.00;99675.47;4939083;28;20063;-49
2021/01/28 05:58:19;;;;;;;32.63;18.83;;;;;;;3.18;100.00;99670.16;4936073;28;20052;-53
2021/01/28 06:01:02;;;;;;;30.40;17.38;;;;;;;3.10;100.00;99663.94;4930270;28;20464;-51
2021/01/28 06:04:09;;;;;;;35.28;19.98;;;;;;;3.10;100.00;99663.94;4934293;28;20048;-51
2021/01/28 06:06:42;;;;;;;;;;;;;;;3.16;100.00;99665.06;4934781;28;20051;-53
2021/01/28 06:09:38;;;;;;;31.10;17.63;;;;;;;3.20;100.00;99658.47;4935067;28;19956;-54
2021/01/28 06:12:12;;;;;;;32.75;18.65;;;;;;;3.11;100.00;99653.91;4936268;28;20054;-50
2021/01/28 06:15:16;;;;;;;31.80;17.85;;;;;;;3.18;100.00;99660.06;4941155;28;20048;-51
2021/01/28 06:17:50;;;;;;;31.80;18.30;;;;;;;3.27;100.00;99655.34;4934433;28;20052;-54
2021/01/28 06:20:42;;;;;;;29.45;17.08;;;;;;;3.25;100.00;99652.78;4934506;28;20099;-54
2021/01/28 06:23:41;;;;;;;32.25;17.80;;;;;;;3.19;100.00;99657.59;4936573;28;20077;-48
2021/01/28 06:26:19;;;;;;;31.55;17.45;;;;;;;3.37;100.00;99661.59;4938299;28;20495;-47
2021/01/28 06:29:29;;;;;;;31.52;17.80;;;;;;;3.25;100.00;99662.03;4936161;28;20047;-48
2021/01/28 06:32:23;;;;;;;32.30;17.35;;;;;;;3.35;100.00;99670.81;4936286;28;20055;-52
2021/01/28 06:34:50;;;;;;;32.60;17.10;;;;;;;3.32;100.00;99659.75;4935505;28;20564;-48
2021/01/28 06:37:25;;;;;;;30.25;16.63;;;;;;;3.39;100.00;99667.59;4934033;28;20054;-49
2021/01/28 06:39:54;;;;;;;33.20;17.63;;;;;;;3.41;100.00;99668.50;4936988;28;20103;-49
2021/01/28 06:42:25;;;;;;;34.10;19.00;;;;;;;3.48;100.00;99673.88;4933580;28;20627;-47
2021/01/28 06:45:32;;;;;;;33.33;18.85;;;;;;;3.45;100.00;99671.22;4935416;28;20056;-53
2021/01/28 06:48:16;;;;;;;31.95;17.92;;;;;;;3.51;100.00;99663.88;4935140;28;20081;-46
2021/01/28 06:51:04;;;;;;;35.88;19.27;;;;;;;3.47;100.00;99661.19;4934077;28;20099;-52
2021/01/28 06:53:33;;;;;;;33.42;17.90;;;;;;;3.47;100.00;99661.19;4933274;28;20047;-48
2021/01/28 06:56:21;;;;;;;32.08;18.52;;;;;;;3.41;100.00;99664.31;4935331;28;20051;-50
2021/01/28 06:59:17;;;;;;;32.28;19.17;;;;;;;3.45;100.00;99655.19;4934811;28;20627;-52
2021/01/28 07:02:11;;;;;;;29.63;16.73;;;;;;;3.43;100.00;99659.34;4932986;28;20047;-53
2021/01/28 07:05:01;;;;;;;34.22;18.40;;;;;;;3.60;100.00;99662.47;4932785;28;20036;-51
2021/01/28 07:07:37;;;;;;;36.45;16.48;;;;;;;3.50;100.00;99659.59;4932442;28;20058;-50
2021/01/28 07:10:16;;;;;;;24.23;13.23;;;;;;;3.50;100.00;99646.94;4934086;28;20043;-47
2021/01/28 07:12:52;;;;;;;29.35;16.95;;;;;;;3.50;100.00;99651.16;4932830;28;20059;-51
2021/01/28 07:15:20;;;;;;;32.33;18.50;;;;;;;3.56;100.00;99651.41;4932110;28;20579;-50
2021/01/28 07:18:14;;;;;;;33.80;18.75;;;;;;;3.53;100.00;99649.59;4933452;28;20495;-48
2021/01/28 07:20:57;;;;;;;35.22;19.17;;;;;;;3.46;100.00;99647.63;4933439;28;20764;-52
2021/01/28 07:23:31;;;;;;;34.28;19.65;;;;;;;3.52;100.00;99634.38;4936192;28;20039;-55
2021/01/28 07:26:12;;;;;;;33.20;18.95;;;;;;;3.47;100.00;99634.19;4935176;28;20059;-45
2021/01/28 07:28:40;;;;;;;31.92;18.30;;;;;;;3.67;100.00;99632.38;4932167;28;20056;-49
2021/01/28 07:31:07;;;;;;;32.72;18.65;;;;;;;3.74;100.00;99633.44;4934205;28;20047;-54
2021/01/28 07:33:37;;;;;;;30.33;17.35;;;;;;;3.63;100.00;99629.69;4934421;28;20595;-49
2021/01/28 07:36:12;;;;;;;32.70;17.80;;;;;;;3.74;100.00;99618.25;4946988;28;20107;-50
2021/01/28 07:38:48;;;;;;;30.92;17.63;;;;;;;3.71;100.00;99615.63;4932901;28;20052;-50
2021/01/28 07:41:15;;;;;;;;;;;;;;;3.68;100.00;99613.00;4933686;28;20054;-49
2021/01/28 07:43:44;;;;;;;33.38;17.20;;;;;;;3.70;100.00;99617.31;4932967;28;19923;-54
2021/01/28 07:46:23;;;;;;;31.00;16.67;;;;;;;3.76;100.00;99614.13;4934094;28;20051;-49
2021/01/28 07:49:14;;;;;;;29.85;16.35;;;;;;;3.72;100.00;99615.69;4934142;28;20056;-51
2021/01/28 07:51:47;;;;;;;31.45;18.10;;;;;;;3.69;100.00;99609.66;4932480;28;20048;-50
2021/01/28 07:54:22;;;;;;;31.70;18.00;;;;;;;3.56;100.00;99615.97;4938633;28;20054;-49
2021/01/28 07:57:21;;;;;;;31.02;17.00;;;;;;;3.86;100.00;99625.44;4937694;28;20051;-51
2021/01/28 08:00:12;;;;;;;34.70;18.27;;;;;;;3.57;100.00;99623.59;4919904;28;20048;-48
2021/01/28 08:02:39;;;;;;;32.17;18.42;;;;;;;3.67;100.00;99622.25;4931834;28;20079;-51
2021/01/28 08:05:05;;;;;;;34.53;17.88;;;;;;;3.76;100.00;99622.59;4933046;28;20809;-52
2021/01/28 08:07:38;;;;;;;49.72;25.95;;;;;;;3.66;100.00;99609.56;4935266;28;20054;-53
2021/01/28 08:10:31;;;;;;;32.20;16.25;;;;;;;3.74;100.00;99619.13;4932432;28;20062;-52
2021/01/28 08:13:14;;;;;;;19.90;11.02;;;;;;;3.59;99.75;99621.13;4934138;28;20042;-51
2021/01/28 08:15:46;;;;;;;29.42;15.10;;;;;;;3.50;100.00;99611.50;4932613;28;20052;-53
2021/01/28 08:18:31;;;;;;;15.10;8.75;;;;;;;3.48;100.00;99614.81;4931830;28;20059;-56
2021/01/28 08:21:13;;;;;;;13.23;8.02;;;;;;;3.38;100.00;99626.28;4932601;28;20043;-52
2021/01/28 08:23:43;;;;;;;11.00;6.60;;;;;;;3.53;100.00;99628.50;4932367;28;20043;-50
2021/01/28 08:26:14;;;;;;;10.68;7.15;;;;;;;3.45;100.00;99627.34;4931828;28;20110;-49
2021/01/28 08:28:44;;;;;;;9.73;6.32;;;;;;;3.22;100.00;99624.81;4930485;28;20177;-57
2021/01/28 08:31:19;;;;;;;10.20;5.93;;;;;;;3.22;100.00;99624.81;4934534;28;20058;-57
2021/01/28 08:33:54;;;;;;;10.38;6.72;;;;;;;3.38;100.00;99622.88;4934124;28;20048;-53
2021/01/28 08:36:35;;;;;;;7.82;4.90;;;;;;;3.57;100.00;99621.06;4934618;28;20471;-51
2021/01/28 08:39:15;;;;;;;6.13;4.43;;;;;;;3.84;100.00;99620.34;4937917;28;20043;-57
2021/01/28 08:41:43;;;;;;;8.45;4.57;;;;;;;3.83;100.00;99606.78;4931274;28;20048;-53
2021/01/28 08:44:14;;;;;;;7.22;4.43;;;;;;;3.83;99.54;99616.06;4939568;28;20480;-52
2021/01/28 08:46:43;;;;;;;11.55;4.57;;;;;;;3.61;100.00;99613.59;4932402;28;20048;-54
2021/01/28 08:49:18;;;;;;;9.60;5.68;;;;;;;3.73;100.00;99604.75;4940079;28;20507;-55
2021/01/28 08:51:52;;;;;;;10.50;6.55;;;;;;;3.96;99.99;99610.59;4947610;28;20060;-57
2021/01/28 08:54:27;;;;;;;10.00;6.38;;;;;;;4.05;99.00;99617.66;4932165;28;20098;-52
2021/01/28 08:56:57;;;;;;;8.03;5.17;;;;;;;4.38;97.48;99623.00;4934029;28;20055;-57
2021/01/28 08:59:37;;;;;;;7.80;5.22;;;;;;;4.26;97.19;99623.47;4941014;28;20054;-50
2021/01/28 09:02:04;;;;;;;8.10;5.30;;;;;;;4.50;97.27;99625.09;4932780;28;20567;-57
2021/01/28 09:04:35;;;;;;;10.23;6.72;;;;;;;4.16;96.48;99618.91;4932386;28;20047;-55
2021/01/28 09:07:03;;;;;;;7.57;5.65;;;;;;;4.12;97.73;99626.34;4931729;28;20461;-51
2021/01/28 09:09:34;;;;;;;10.13;6.20;;;;;;;3.80;98.94;99639.63;4931209;28;20044;-55
2021/01/28 09:12:27;;;;;;;9.85;6.28;;;;;;;4.21;98.82;99630.06;4933421;28;20047;-57
2021/01/28 09:15:16;;;;;;;11.73;7.20;;;;;;;3.97;97.80;99627.53;4938334;28;20817;-54
2021/01/28 09:17:43;;;;;;;10.25;7.30;;;;;;;3.79;98.82;99629.41;4932694;28;20059;-55
2021/01/28 09:20:22;;;;;;;11.75;8.10;;;;;;;4.02;99.76;99631.09;4932954;28;20039;-57
2021/01/28 09:22:49;;;;;;;11.98;7.88;;;;;;;3.88;99.42;99639.00;4941952;28;20047;-58
2021/01/28 09:25:22;;;;;;;16.67;8.63;;;;;;;3.67;99.79;99629.84;4929784;28;20126;-57
2021/01/28 09:28:23;;;;;;;15.65;9.10;;;;;;;3.79;99.76;99619.28;4929477;28;20051;-55
2021/01/28 09:30:54;;;;;;;14.38;8.38;;;;;;;3.71;100.00;99616.50;4936053;28;21557;-57
2021/01/28 09:33:23;;;;;;;13.02;7.57;;;;;;;3.83;100.00;99631.25;4935292;28;20046;-56
2021/01/28 09:36:11;;;;;;;19.45;9.15;;;;;;;3.98;100.00;99620.81;4942241;28;20047;-56
2021/01/28 09:38:39;;;;;;;27.10;16.30;;;;;;;4.41;97.58;99628.19;4936623;28;20044;-56
2021/01/28 09:41:17;;;;;;;20.58;12.25;;;;;;;4.09;98.37;99619.50;4934070;28;20048;-53
2021/01/28 09:43:45;;;;;;;24.27;15.48;;;;;;;4.20;97.24;99619.84;4937491;28;20623;-57
2021/01/28 09:46:18;;;;;;;78.30;40.17;;;;;;;4.44;93.51;99619.84;4940400;28;20086;-54
2021/01/28 09:48:51;;;;;;;19.25;12.35;;;;;;;4.63;94.43;99621.28;4946145;28;20050;-57
2021/01/28 09:51:35;;;;;;;20.40;12.82;;;;;;;4.15;94.91;99606.16;4945507;28;20071;-55
2021/01/28 09:54:14;;;;;;;14.45;8.45;;;;;;;4.16;93.96;99602.81;4934811;28;20043;-56
2021/01/28 09:56:42;;;;;;;12.77;8.90;;;;;;;4.49;93.41;99603.97;4935558;28;20058;-53
2021/01/28 09:59:10;;;;;;;13.02;8.40;;;;;;;4.08;94.06;99605.13;4936820;28;20574;-55
2021/01/28 10:01:36;;;;;;;16.42;9.82;;;;;;;4.43;94.57;99603.75;4941127;28;20043;-56
2021/01/28 10:04:04;;;;;;;15.55;11.50;;;;;;;4.29;94.50;99594.81;4939847;28;20052;-54
2021/01/28 10:06:32;;;;;;;13.75;10.07;;;;;;;4.21;94.68;99588.66;4938915;28;20523;-55
2021/01/28 10:08:59;;;;;;;13.82;9.35;;;;;;;4.38;92.41;99584.13;4934834;28;20055;-54
2021/01/28 10:11:27;;;;;;;13.52;9.32;;;;;;;4.18;94.88;99588.56;4938365;28;20052;-55
2021/01/28 10:13:54;;;;;;;16.77;9.57;;;;;;;3.95;93.82;99581.03;4936862;28;20064;-53
2021/01/28 10:16:20;;;;;;;14.50;9.05;;;;;;;4.08;95.09;99584.84;4934500;28;20099;-56
2021/01/28 10:18:48;;;;;;;13.55;9.02;;;;;;;4.70;91.91;99577.56;4941665;28;20047;-56
2021/01/28 10:21:15;;;;;;;15.68;9.70;;;;;;;4.88;90.04;99584.88;4936930;28;20051;-55
2021/01/28 10:23:47;;;;;;;11.80;7.95;;;;;;;4.76;90.49;99585.34;4942085;28;20055;-56
2021/01/28 10:26:17;;;;;;;14.13;9.07;;;;;;;4.54;91.80;99586.38;4939281;28;20055;-58
2021/01/28 10:28:44;;;;;;;13.18;7.57;;;;;;;4.84;89.07;99581.38;4935587;28;20107;-50
2021/01/28 10:31:11;;;;;;;11.57;7.35;;;;;;;4.63;86.86;99568.91;4937818;28;20507;-56
2021/01/28 10:33:38;;;;;;;11.38;7.35;;;;;;;4.61;89.12;99580.66;4945751;28;20553;-57
2021/01/28 10:36:06;;;;;;;10.57;7.20;;;;;;;5.28;87.25;99582.69;4946558;28;20150;-53
2021/01/28 10:38:35;;;;;;;12.55;7.80;;;;;;;5.11;88.44;99586.41;4937220;28;20468;-55
2021/01/28 10:41:03;;;;;;;14.30;7.97;;;;;;;5.63;85.48;99568.44;4943237;28;20451;-56
2021/01/28 10:43:30;;;;;;;14.23;8.60;;;;;;;5.19;85.12;99559.59;4933033;28;20051;-56
2021/01/28 10:45:57;;;;;;;14.30;8.43;;;;;;;5.63;82.70;99557.44;4941203;28;20142;-57
2021/01/28 10:48:24;;;;;;;13.95;7.78;;;;;;;5.59;81.79;99556.50;4937936;28;20101;-52
2021/01/28 10:50:51;;;;;;;14.40;8.32;;;;;;;5.70;80.05;99564.41;4940700;28;20055;-55
2021/01/28 10:53:18;;;;;;;12.40;7.95;;;;;;;5.27;81.86;99563.22;4941556;28;20047;-51
2021/01/28 10:55:44;;;;;;;12.55;8.35;;;;;;;5.04;83.70;99549.88;4936298;28;20054;-55
2021/01/28 10:58:11;;;;;;;14.27;8.48;;;;;;;4.72;87.23;99555.66;4936800;28;20047;-54
2021/01/28 11:00:39;;;;;;;12.93;8.50;;;;;;;5.06;86.18;99553.28;4933775;28;20040;-51
2021/01/28 11:03:05;;;;;;;13.95;8.95;;;;;;;5.55;83.47;99538.59;4941512;28;20586;-53
2021/01/28 11:05:35;;;;;;;12.02;7.80;;;;;;;5.21;83.25;99529.19;4933379;28;20051;-54
2021/01/28 11:08:03;;;;;;;13.90;7.95;;;;;;;5.56;82.06;99538.63;4941295;28;20047;-56
2021/01/28 11:10:30;;;;;;;12.85;8.27;;;;;;;4.71;84.45;99524.34;4947320;28;20051;-57
2021/01/28 11:12:58;;;;;;;12.10;8.13;;;;;;;4.88;84.95;99519.78;4936970;28;20051;-56
2021/01/28 11:15:28;;;;;;;14.70;9.05;;;;;;;4.97;84.99;99517.50;4933360;28;20054;-56
2021/01/28 11:17:55;;;;;;;13.60;8.93;;;;;;;4.77;86.13;99503.41;4935045;28;20377;-53
2021/01/28 11:20:22;;;;;;;14.50;9.00;;;;;;;4.95;85.76;99495.47;4932831;28;20055;-52
2021/01/28 11:22:49;;;;;;;14.80;8.95;;;;;;;5.50;79.52;99487.69;4934717;28;20047;-57
2021/01/28 11:25:22;;;;;;;13.10;8.43;;;;;;;4.99;80.39;99479.50;4933079;28;20051;-57
2021/01/28 11:27:49;;;;;;;13.98;8.27;;;;;;;5.15;83.09;99479.13;4934427;28;20063;-52
2021/01/28 11:30:22;;;;;;;12.32;8.02;;;;;;;5.16;81.54;99470.69;4933222;28;20051;-58
2021/01/28 11:32:49;;;;;;;14.05;8.35;;;;;;;5.48;81.02;99475.78;4938494;28;20713;-57
2021/01/28 11:35:20;;;;;;;14.23;9.05;;;;;;;5.29;80.74;99489.66;4933639;28;20114;-55
2021/01/28 11:37:48;;;;;;;12.00;8.32;;;;;;;5.11;82.98;99497.63;4939463;28;20061;-55
2021/01/28 11:40:21;;;;;;;12.93;8.38;;;;;;;5.13;80.14;99498.53;4942316;28;20183;-57
2021/01/28 11:42:49;;;;;;;15.20;9.43;;;;;;;4.92;81.20;99495.38;4941585;28;20520;-58
2021/01/28 11:45:24;;;;;;;13.55;8.50;;;;;;;5.00;81.07;99491.38;4935893;28;20054;-56
2021/01/28 11:47:51;;;;;;;;;;;;;;;4.96;81.73;99487.03;4939061;28;20635;-56